createdAt,value
2024-01-06T00:01:35.355Z,101102.00
2024-01-06T00:04:24.651Z,101098.19
2024-01-06T00:07:14.905Z,101104.16
2024-01-06T00:10:04.459Z,101095.72
2024-01-06T00:12:53.859Z,101092.78
2024-01-06T00:15:44.746Z,101103.31
2024-01-06T00:18:34.238Z,101105.50
2024-01-06T00:21:23.709Z,101097.94
2024-01-06T00:24:13.198Z,101108.25
2024-01-06T00:27:02.540Z,101105.25
2024-01-06T00:29:52.028Z,101123.16
2024-01-06T00:32:42.715Z,101124.53
2024-01-06T00:35:32.145Z,101118.78
2024-01-06T00:38:21.689Z,101133.16
2024-01-06T00:41:11.112Z,101127.50
2024-01-06T00:44:00.523Z,101130.72
2024-01-06T00:46:49.868Z,101129.09
2024-01-06T00:49:40.772Z,101134.50
2024-01-06T00:52:30.335Z,101135.81
2024-01-06T00:55:19.914Z,101145.56
2024-01-06T00:58:09.930Z,101146.91
2024-01-06T01:00:59.514Z,101154.50
2024-01-06T01:03:49.109Z,101153.69
2024-01-06T01:06:41.220Z,101157.47
2024-01-06T01:09:30.732Z,101158.56
2024-01-06T01:12:20.154Z,101166.16
2024-01-06T01:15:10.605Z,101165.34
2024-01-06T01:17:59.943Z,101162.03
2024-01-06T01:20:49.316Z,101172.88
2024-01-06T01:23:40.016Z,101172.06
2024-01-06T01:26:29.313Z,101181.25
2024-01-06T01:29:21.324Z,101175.03
2024-01-06T01:32:10.886Z,101158.47
2024-01-06T01:35:00.340Z,101178.56
2024-01-06T01:37:49.670Z,101186.09
2024-01-06T01:40:40.291Z,101189.94
2024-01-06T01:43:30.286Z,101193.44
2024-01-06T01:46:19.615Z,101194.28
2024-01-06T01:49:09.266Z,101188.53
2024-01-06T01:51:58.661Z,101195.34
2024-01-06T01:54:49.903Z,101186.13
2024-01-06T01:57:41.031Z,101193.16
2024-01-06T02:00:31.012Z,101199.63
2024-01-06T02:03:20.923Z,101189.34
2024-01-06T02:06:10.328Z,101200.72
2024-01-06T02:08:59.989Z,101198.47
2024-01-06T02:11:49.233Z,101201.19
2024-01-06T02:14:39.900Z,101208.28
2024-01-06T02:17:29.147Z,101213.44
2024-01-06T02:20:21.273Z,101214.25
2024-01-06T02:23:12.138Z,101218.84
2024-01-06T02:26:01.413Z,101216.94
2024-01-06T02:28:50.660Z,101228.06
2024-01-06T02:31:40.180Z,101230.50
2024-01-06T02:34:29.674Z,101235.94
2024-01-06T02:37:18.966Z,101235.09
2024-01-06T02:40:11.982Z,101235.09
2024-01-06T02:43:01.379Z,101247.56
2024-01-06T02:45:50.984Z,101253.78
2024-01-06T02:48:40.930Z,101264.28
2024-01-06T02:51:30.281Z,101264.00
2024-01-06T02:54:19.647Z,101260.44
2024-01-06T02:57:10.613Z,101265.56
2024-01-06T03:00:00.038Z,101266.09
2024-01-06T03:02:49.448Z,101276.13
2024-01-06T03:05:39.307Z,101274.75
2024-01-06T03:08:29.007Z,101271.44
2024-01-06T03:11:18.262Z,101274.69
2024-01-06T03:14:08.899Z,101267.59
2024-01-06T03:16:58.335Z,101279.53
2024-01-06T03:19:47.756Z,101277.34
2024-01-06T03:22:37.131Z,101269.19
2024-01-06T03:25:26.469Z,101281.38
2024-01-06T03:28:15.774Z,101276.22
2024-01-06T03:31:06.782Z,101283.53
2024-01-06T03:33:57.235Z,101285.09
2024-01-06T03:36:46.831Z,101275.09
2024-01-06T03:39:36.144Z,101276.72
2024-01-06T03:42:25.715Z,101284.59
2024-01-06T03:45:15.211Z,101287.53
2024-01-06T03:48:06.711Z,101274.47
2024-01-06T03:50:56.611Z,101286.44
2024-01-06T03:53:46.036Z,101282.00
2024-01-06T03:56:35.352Z,101298.59
2024-01-06T03:59:24.687Z,101303.69
2024-01-06T04:02:14.023Z,101305.28
2024-01-06T04:05:06.354Z,101300.88
2024-01-06T04:07:55.730Z,101311.34
2024-01-06T04:10:45.046Z,101305.66
2024-01-06T04:13:34.316Z,101310.50
2024-01-06T04:16:23.680Z,101310.16
2024-01-06T04:19:14.175Z,101321.00
2024-01-06T04:22:05.051Z,101320.16
2024-01-06T04:24:54.398Z,101331.00
2024-01-06T04:27:43.937Z,101330.44
2024-01-06T04:30:33.308Z,101329.88
2024-01-06T04:33:22.781Z,101338.81
2024-01-06T04:36:12.192Z,101335.53
2024-01-06T04:39:02.913Z,101336.91
2024-01-06T04:41:52.566Z,101340.69
2024-01-06T04:44:42.153Z,101343.84
2024-01-06T04:47:31.840Z,101347.91
2024-01-06T04:50:21.167Z,101345.47
2024-01-06T04:53:10.855Z,101349.69
2024-01-06T04:56:01.541Z,101348.09
2024-01-06T04:58:50.752Z,101349.25
2024-01-06T05:01:40.097Z,101368.44
2024-01-06T05:04:29.886Z,101354.31
2024-01-06T05:07:19.278Z,101366.47
2024-01-06T05:10:10.646Z,101362.44
2024-01-06T05:13:01.361Z,101363.25
2024-01-06T05:15:50.849Z,101366.22
2024-01-06T05:18:40.341Z,101371.19
2024-01-06T05:21:29.823Z,101370.38
2024-01-06T05:24:20.428Z,101361.13
2024-01-06T05:27:12.461Z,101366.03
2024-01-06T05:30:04.681Z,101366.84
2024-01-06T05:32:54.002Z,101380.13
2024-01-06T05:35:43.597Z,101375.22
2024-01-06T05:38:32.899Z,101377.41
2024-01-06T05:41:22.171Z,101387.94
2024-01-06T05:44:11.453Z,101393.00
2024-01-06T05:47:02.414Z,101394.41
2024-01-06T05:49:51.667Z,101396.03
2024-01-06T05:52:41.043Z,101398.41
2024-01-06T05:55:30.921Z,101409.00
2024-01-06T05:58:20.174Z,101408.41
2024-01-06T06:01:09.567Z,101410.91
2024-01-06T06:04:00.345Z,101410.31
2024-01-06T06:06:49.658Z,101416.53
2024-01-06T06:09:41.159Z,101418.41
2024-01-06T06:12:30.640Z,101422.69
2024-01-06T06:15:20.219Z,101419.47
2024-01-06T06:18:09.692Z,101434.06
2024-01-06T06:21:00.616Z,101427.28
2024-01-06T06:23:49.829Z,101438.94
2024-01-06T06:26:42.115Z,101448.91
2024-01-06T06:29:31.683Z,101452.19
2024-01-06T06:32:21.120Z,101445.97
2024-01-06T06:35:10.905Z,101450.72
2024-01-06T06:38:01.676Z,101460.06
2024-01-06T06:40:50.952Z,101462.66
2024-01-06T06:43:40.690Z,101462.66
2024-01-06T06:46:29.947Z,101465.97
2024-01-06T06:49:19.380Z,101465.88
2024-01-06T06:52:08.705Z,101475.97
2024-01-06T06:54:59.450Z,101481.84
2024-01-06T06:57:48.801Z,101477.25
2024-01-06T07:00:39.428Z,101489.25
2024-01-06T07:03:28.995Z,101486.53
2024-01-06T07:06:18.362Z,101500.63
2024-01-06T07:09:07.677Z,101494.97
2024-01-06T07:11:58.579Z,101499.56
2024-01-06T07:14:48.603Z,101500.06
2024-01-06T07:17:38.125Z,101500.72
2024-01-06T07:20:27.577Z,101508.59
2024-01-06T07:23:16.958Z,101508.84
2024-01-06T07:26:06.378Z,101512.09
2024-01-06T07:28:57.265Z,101514.25
2024-01-06T07:31:46.661Z,101528.44
2024-01-06T07:34:36.171Z,101528.91
2024-01-06T07:37:25.675Z,101531.03
2024-01-06T07:40:17.885Z,101539.66
2024-01-06T07:43:07.552Z,101541.19
2024-01-06T07:45:58.371Z,101544.47
2024-01-06T07:48:47.834Z,101545.28
2024-01-06T07:51:37.220Z,101548.50
2024-01-06T07:54:26.637Z,101547.94
2024-01-06T07:57:15.960Z,101552.97
2024-01-06T08:00:06.775Z,101554.31
2024-01-06T08:03:07.290Z,101560.53
2024-01-06T08:05:56.958Z,101562.66
2024-01-06T08:08:47.103Z,101573.72
2024-01-06T08:11:36.422Z,101575.63
2024-01-06T08:14:25.694Z,101580.28
2024-01-06T08:17:17.819Z,101578.91
2024-01-06T08:20:12.485Z,101568.13
2024-01-06T08:23:01.556Z,101581.59
2024-01-06T08:25:51.182Z,101591.09
2024-01-06T08:28:40.709Z,101605.94
2024-01-06T08:31:30.166Z,101612.47
2024-01-06T08:34:19.851Z,101609.72
2024-01-06T08:37:10.779Z,101615.13
2024-01-06T08:40:00.149Z,101618.38
2024-01-06T08:42:49.548Z,101621.66
2024-01-06T08:45:39.098Z,101631.41
2024-01-06T08:48:29.610Z,101635.75
2024-01-06T08:51:21.725Z,101642.25
2024-01-06T08:54:12.753Z,101652.47
2024-01-06T08:57:02.111Z,101651.34
2024-01-06T08:59:51.614Z,101654.38
2024-01-06T09:02:40.930Z,101656.00
2024-01-06T09:05:30.297Z,101659.63
2024-01-06T09:08:19.631Z,101674.81
2024-01-06T09:11:10.403Z,101672.34
2024-01-06T09:13:59.705Z,101675.28
2024-01-06T09:16:48.972Z,101688.91
2024-01-06T09:19:38.479Z,101688.31
2024-01-06T09:22:27.871Z,101689.72
2024-01-06T09:25:17.295Z,101701.22
2024-01-06T09:28:08.326Z,101704.16
2024-01-06T09:30:57.812Z,101710.66
2024-01-06T09:33:47.276Z,101714.03
2024-01-06T09:36:37.074Z,101701.97
2024-01-06T09:39:26.413Z,101714.50
2024-01-06T09:42:16.562Z,101715.09
2024-01-06T09:45:09.185Z,101715.19
2024-01-06T09:47:59.972Z,101725.84
2024-01-06T09:50:51.321Z,101721.25
2024-01-06T09:53:50.801Z,101721.25
2024-01-06T09:56:41.772Z,101718.66
2024-01-06T09:59:35.983Z,101727.94
2024-01-06T10:02:27.037Z,101727.72
2024-01-06T10:05:17.785Z,101723.19
2024-01-06T10:08:07.930Z,101734.00
2024-01-06T10:10:57.414Z,101736.81
2024-01-06T10:13:46.974Z,101750.53
2024-01-06T10:16:37.942Z,101756.88
2024-01-06T10:19:28.818Z,101759.91
2024-01-06T10:22:19.086Z,101757.19
2024-01-06T10:25:10.243Z,101760.00
2024-01-06T10:27:59.581Z,101759.25
2024-01-06T10:30:49.035Z,101762.41
2024-01-06T10:33:38.904Z,101765.69
2024-01-06T10:36:30.909Z,101767.31
2024-01-06T10:39:20.780Z,101770.44
2024-01-06T10:42:12.058Z,101771.00
2024-01-06T10:45:02.105Z,101771.84
2024-01-06T10:47:52.345Z,101783.59
2024-01-06T10:50:41.834Z,101777.19
2024-01-06T10:53:33.026Z,101785.06
2024-01-06T10:56:23.205Z,101787.22
2024-01-06T10:59:15.847Z,101789.16
2024-01-06T11:02:07.148Z,101791.22
2024-01-06T11:04:56.920Z,101793.91
2024-01-06T11:07:48.494Z,101790.16
2024-01-06T11:10:43.089Z,101797.88
2024-01-06T11:13:32.420Z,101794.09
2024-01-06T11:16:40.102Z,101794.66
2024-01-06T11:19:56.222Z,101800.09
2024-01-06T11:22:46.966Z,101794.16
2024-01-06T11:25:36.445Z,101806.81
2024-01-06T11:28:28.406Z,101809.94
2024-01-06T11:31:17.840Z,101808.59
2024-01-06T11:34:18.207Z,101813.53
2024-01-06T11:37:10.490Z,101796.69
2024-01-06T11:40:00.085Z,101802.78
2024-01-06T11:42:50.885Z,101806.41
2024-01-06T11:45:44.215Z,101798.34
2024-01-06T11:48:34.274Z,101808.75
2024-01-06T11:51:23.680Z,101808.56
2024-01-06T11:54:13.851Z,101803.72
2024-01-06T11:57:03.256Z,101813.06
2024-01-06T11:59:53.291Z,101817.38
2024-01-06T12:02:44.529Z,101824.78
2024-01-06T12:05:33.866Z,101818.81
2024-01-06T12:08:23.176Z,101803.69
2024-01-06T12:11:12.520Z,101823.72
2024-01-06T12:14:02.280Z,101825.69
2024-01-06T12:16:51.521Z,101815.19
2024-01-06T12:19:44.113Z,101813.97
2024-01-06T12:22:33.766Z,101812.69
2024-01-06T12:25:24.163Z,101805.34
2024-01-06T12:28:13.716Z,101813.34
2024-01-06T12:31:06.706Z,101822.22
2024-01-06T12:33:57.025Z,101810.72
2024-01-06T12:36:49.690Z,101819.75
2024-01-06T12:39:39.140Z,101811.19
2024-01-06T12:42:28.647Z,101816.69
2024-01-06T12:45:18.502Z,101813.75
2024-01-06T12:48:09.340Z,101805.00
2024-01-06T12:50:58.630Z,101809.94
2024-01-06T12:53:49.252Z,101812.91
2024-01-06T12:56:38.724Z,101817.03
2024-01-06T12:59:28.068Z,101811.25
2024-01-06T13:02:17.623Z,101815.91
2024-01-06T13:05:07.508Z,101812.84
2024-01-06T13:07:57.133Z,101813.66
2024-01-06T13:10:47.882Z,101812.50
2024-01-06T13:13:37.320Z,101802.94
2024-01-06T13:16:26.841Z,101816.56
2024-01-06T13:19:16.300Z,101809.13
2024-01-06T13:22:06.076Z,101811.56
2024-01-06T13:24:55.464Z,101808.44
2024-01-06T13:27:46.685Z,101809.06
2024-01-06T13:30:36.754Z,101816.22
2024-01-06T13:33:26.231Z,101811.28
2024-01-06T13:36:18.770Z,101809.09
2024-01-06T13:39:08.294Z,101815.56
2024-01-06T13:41:57.765Z,101796.91
2024-01-06T13:44:49.441Z,101816.47
2024-01-06T13:47:38.779Z,101815.59
2024-01-06T13:50:28.205Z,101814.75
2024-01-06T13:53:18.360Z,101825.03
2024-01-06T13:56:08.821Z,101819.00
2024-01-06T13:58:58.430Z,101822.81
2024-01-06T14:01:49.256Z,101826.88
2024-01-06T14:04:38.860Z,101828.16
2024-01-06T14:07:28.343Z,101822.50
2024-01-06T14:10:18.279Z,101826.53
2024-01-06T14:13:08.922Z,101828.47
2024-01-06T14:15:58.564Z,101831.44
2024-01-06T14:18:49.727Z,101825.72
2024-01-06T14:21:40.007Z,101851.03
2024-01-06T14:24:29.310Z,101855.38
2024-01-06T14:27:18.757Z,101851.03
2024-01-06T14:30:11.159Z,101855.91
2024-01-06T14:33:00.636Z,101860.00
2024-01-06T14:35:52.108Z,101854.50
2024-01-06T14:38:41.583Z,101868.69
2024-01-06T14:41:30.932Z,101870.59
2024-01-06T14:44:21.169Z,101874.41
2024-01-06T14:47:10.479Z,101875.19
2024-01-06T14:49:59.863Z,101864.56
2024-01-06T14:52:50.722Z,101867.75
2024-01-06T14:55:40.145Z,101876.47
2024-01-06T14:58:30.522Z,101874.00
2024-01-06T15:01:19.882Z,101889.47
2024-01-06T15:04:09.448Z,101887.31
2024-01-06T15:06:58.856Z,101893.31
2024-01-06T15:09:49.598Z,101895.69
2024-01-06T15:12:39.046Z,101894.88
2024-01-06T15:15:28.612Z,101900.31
2024-01-06T15:18:18.188Z,101895.44
2024-01-06T15:21:07.722Z,101908.50
2024-01-06T15:23:56.994Z,101910.41
2024-01-06T15:26:47.703Z,101910.66
2024-01-06T15:29:36.995Z,101919.38
2024-01-06T15:32:26.335Z,101918.81
2024-01-06T15:35:15.759Z,101920.44
2024-01-06T15:38:05.465Z,101922.06
2024-01-06T15:40:54.806Z,101928.81
2024-01-06T15:43:45.576Z,101931.25
2024-01-06T15:46:34.884Z,101937.78
2024-01-06T15:49:24.360Z,101945.06
2024-01-06T15:52:13.689Z,101940.97
2024-01-06T15:55:03.056Z,101937.09
2024-01-06T15:57:52.490Z,101945.25
2024-01-06T16:00:43.538Z,101952.03
2024-01-06T16:03:32.921Z,101949.25
2024-01-06T16:06:22.364Z,101956.28
2024-01-06T16:09:12.159Z,101960.09
2024-01-06T16:12:01.470Z,101974.16
2024-01-06T16:14:50.824Z,101972.22
2024-01-06T16:17:41.665Z,101967.78
2024-01-06T16:20:31.007Z,101983.28
2024-01-06T16:23:20.378Z,101985.44
2024-01-06T16:26:10.797Z,101988.91
2024-01-06T16:29:00.038Z,101994.03
2024-01-06T16:31:49.522Z,101999.13
2024-01-06T16:34:42.860Z,102001.28
2024-01-06T16:37:31.979Z,102001.81
2024-01-06T16:40:21.633Z,102014.47
2024-01-06T16:43:10.988Z,102022.88
2024-01-06T16:46:00.394Z,102019.00
2024-01-06T16:48:50.139Z,102024.63
2024-01-06T16:51:40.998Z,102022.41
2024-01-06T16:54:30.938Z,102025.03
2024-01-06T16:57:20.995Z,102027.44
2024-01-06T17:00:11.854Z,102023.00
2024-01-06T17:03:01.096Z,102030.31
2024-01-06T17:05:50.431Z,102019.16
2024-01-06T17:08:42.161Z,102032.22
2024-01-06T17:11:31.450Z,102031.09
2024-01-06T17:14:20.741Z,102035.44
2024-01-06T17:17:10.063Z,102029.34
2024-01-06T17:19:59.446Z,102043.00
2024-01-06T17:22:50.526Z,102036.44
2024-01-06T17:25:41.886Z,102035.50
2024-01-06T17:28:31.169Z,102040.69
2024-01-06T17:31:20.617Z,102039.00
2024-01-06T17:34:10.934Z,102043.00
2024-01-06T17:37:00.496Z,102045.13
2024-01-06T17:39:49.920Z,102043.19
2024-01-06T17:42:40.655Z,102049.09
2024-01-06T17:45:29.971Z,102044.16
2024-01-06T17:48:19.453Z,102048.41
2024-01-06T17:51:08.789Z,102045.63
2024-01-06T17:53:58.816Z,102039.03
2024-01-06T17:56:48.290Z,102037.97
2024-01-06T17:59:38.924Z,102044.72
2024-01-06T18:02:28.263Z,102036.00
2024-01-06T18:05:18.813Z,102041.66
2024-01-06T18:08:08.767Z,102041.09
2024-01-06T18:10:57.984Z,102046.75
2024-01-06T18:13:47.350Z,102048.06
2024-01-06T18:16:40.715Z,102060.47
2024-01-06T18:19:30.352Z,102058.47
2024-01-06T18:22:19.693Z,102060.09
2024-01-06T18:25:10.248Z,102055.41
2024-01-06T18:27:59.596Z,102055.16
2024-01-06T18:30:49.090Z,102055.91
2024-01-06T18:33:40.061Z,102067.00
2024-01-06T18:36:29.470Z,102067.22
2024-01-06T18:39:19.872Z,102067.72
2024-01-06T18:42:10.326Z,102069.03
2024-01-06T18:44:59.876Z,102079.25
2024-01-06T18:47:49.203Z,102083.53
2024-01-06T18:50:40.434Z,102091.34
2024-01-06T18:53:30.125Z,102091.81
2024-01-06T18:56:19.443Z,102092.28
2024-01-06T18:59:09.722Z,102090.41
2024-01-06T19:01:59.077Z,102093.13
2024-01-06T19:04:48.518Z,102098.53
2024-01-06T19:07:39.427Z,102093.44
2024-01-06T19:10:28.924Z,102095.09
2024-01-06T19:13:18.766Z,102091.81
2024-01-06T19:16:08.727Z,102096.28
2024-01-06T19:18:58.137Z,102100.75
2024-01-06T19:21:47.869Z,102102.13
2024-01-06T19:24:43.429Z,102108.72
2024-01-06T19:27:34.524Z,102112.28
2024-01-06T19:30:23.968Z,102113.66
2024-01-06T19:33:13.473Z,102118.28
2024-01-06T19:36:03.355Z,102113.31
2024-01-06T19:38:52.695Z,102112.28
2024-01-06T19:41:43.495Z,102118.72
2024-01-06T19:44:32.867Z,102117.91
2024-01-06T19:47:22.293Z,102127.94
2024-01-06T19:50:12.243Z,102126.53
2024-01-06T19:53:01.584Z,102134.69
2024-01-06T19:55:50.879Z,102135.50
2024-01-06T19:58:41.608Z,102134.34
2024-01-06T20:01:31.011Z,102142.47
2024-01-06T20:04:20.412Z,102146.22
2024-01-06T20:07:09.865Z,102141.31
2024-01-06T20:09:59.276Z,102143.44
2024-01-06T20:12:48.954Z,102145.56
2024-01-06T20:15:40.770Z,102142.25
2024-01-06T20:18:31.054Z,102142.25
2024-01-06T20:21:21.026Z,102146.03
2024-01-06T20:24:10.472Z,102139.44
2024-01-06T20:26:59.846Z,102152.75
2024-01-06T20:29:50.269Z,102159.25
2024-01-06T20:32:41.700Z,102152.31
2024-01-06T20:35:31.395Z,102163.25
2024-01-06T20:38:22.545Z,102163.25
2024-01-06T20:41:13.389Z,102175.41
2024-01-06T20:44:05.259Z,102165.88
2024-01-06T20:46:55.782Z,102187.53
2024-01-06T20:49:46.538Z,102178.22
2024-01-06T20:52:35.883Z,102182.59
2024-01-06T20:55:25.253Z,102173.88
2024-01-06T20:58:14.787Z,102183.06
2024-01-06T21:01:05.021Z,102181.41
2024-01-06T21:03:56.392Z,102178.59
2024-01-06T21:06:47.224Z,102175.88
2024-01-06T21:09:36.878Z,102174.81
2024-01-06T21:12:26.290Z,102176.25
2024-01-06T21:15:15.829Z,102176.44
2024-01-06T21:18:05.467Z,102175.41
2024-01-06T21:20:55.013Z,102171.53
2024-01-06T21:23:49.084Z,102173.16
2024-01-06T21:26:39.119Z,102174.00
2024-01-06T21:29:28.492Z,102176.59
2024-01-06T21:32:17.970Z,102177.19
2024-01-06T21:35:08.510Z,102180.72
2024-01-06T21:37:58.353Z,102182.84
2024-01-06T21:40:49.774Z,102190.38
2024-01-06T21:43:39.142Z,102174.34
2024-01-06T21:46:28.468Z,102187.91
2024-01-06T21:49:17.910Z,102181.06
2024-01-06T21:52:09.436Z,102182.72
2024-01-06T21:54:58.810Z,102191.09
2024-01-06T21:57:49.487Z,102178.84
2024-01-06T22:00:38.934Z,102185.78
2024-01-06T22:03:28.280Z,102185.44
2024-01-06T22:06:17.651Z,102188.59
2024-01-06T22:09:11.347Z,102188.84
2024-01-06T22:12:02.277Z,102186.25
2024-01-06T22:14:52.933Z,102186.47
2024-01-06T22:17:42.459Z,102194.59
2024-01-06T22:20:32.330Z,102201.91
2024-01-06T22:23:21.848Z,102204.03
2024-01-06T22:26:11.141Z,102191.53
2024-01-06T22:29:00.652Z,102203.66
2024-01-06T22:31:51.499Z,102204.72
2024-01-06T22:34:45.672Z,102208.97
2024-01-06T22:37:35.218Z,102211.44
2024-01-06T22:40:24.480Z,102223.09
2024-01-06T22:43:13.778Z,102219.81
2024-01-06T22:46:03.556Z,102218.00
2024-01-06T22:48:54.547Z,102222.38
2024-01-06T22:51:43.944Z,102219.91
2024-01-06T22:54:33.365Z,102225.31
2024-01-06T22:57:22.876Z,102226.97
2024-01-06T23:00:16.632Z,102239.44
2024-01-06T23:03:07.648Z,102236.97
2024-01-06T23:05:58.493Z,102236.72
2024-01-06T23:08:47.922Z,102238.63
2024-01-06T23:11:37.278Z,102242.97
2024-01-06T23:14:26.857Z,102240.25
2024-01-06T23:17:16.294Z,102255.34
2024-01-06T23:20:06.311Z,102249.69
2024-01-06T23:22:57.162Z,102263.81
2024-01-06T23:25:46.547Z,102264.06
2024-01-06T23:28:37.039Z,102270.53
2024-01-06T23:31:26.640Z,102277.22
2024-01-06T23:34:26.666Z,102279.09
2024-01-06T23:37:23.717Z,102267.44
2024-01-06T23:40:15.763Z,102273.09
2024-01-06T23:43:08.200Z,102273.22
2024-01-06T23:46:00.560Z,102270.97
2024-01-06T23:48:50.290Z,102293.59
2024-01-06T23:51:39.718Z,102290.41
2024-01-06T23:54:29.141Z,102292.31
2024-01-06T23:57:20.066Z,102283.50
